sensor_id;sensor_type;location;lat;lon;timestamp;P1;durP1;ratioP1;P2;durP2;ratioP2
25627;SDS011;40915;50.826;4.356;2022-12-07T00:02:24;20.13;;;13.30;;
25627;SDS011;40915;50.826;4.356;2022-12-07T00:04:50;19.80;;;12.87;;
25627;SDS011;40915;50.826;4.356;2022-12-07T00:07:16;18.37;;;13.00;;
25627;SDS011;40915;50.826;4.356;2022-12-07T00:09:41;21.90;;;13.30;;
25627;SDS011;40915;50.826;4.356;2022-12-07T00:12:07;19.27;;;13.07;;
25627;SDS011;40915;50.826;4.356;2022-12-07T00:14:33;21.33;;;13.97;;
25627;SDS011;40915;50.826;4.356;2022-12-07T00:16:58;19.37;;;13.73;;
25627;SDS011;40915;50.826;4.356;2022-12-07T00:19:24;20.43;;;14.07;;
25627;SDS011;40915;50.826;4.356;2022-12-07T00:21:50;21.50;;;14.87;;
25627;SDS011;40915;50.826;4.356;2022-12-07T00:24:15;21.67;;;16.13;;
25627;SDS011;40915;50.826;4.356;2022-12-07T00:26:41;21.80;;;15.50;;
25627;SDS011;40915;50.826;4.356;2022-12-07T00:29:11;20.47;;;14.43;;
25627;SDS011;40915;50.826;4.356;2022-12-07T00:31:44;19.40;;;14.40;;
25627;SDS011;40915;50.826;4.356;2022-12-07T00:34:14;20.57;;;14.70;;
25627;SDS011;40915;50.826;4.356;2022-12-07T00:36:45;24.73;;;18.08;;
25627;SDS011;40915;50.826;4.356;2022-12-07T00:39:10;24.50;;;16.47;;
25627;SDS011;40915;50.826;4.356;2022-12-07T00:41:36;21.73;;;15.23;;
25627;SDS011;40915;50.826;4.356;2022-12-07T00:44:02;20.50;;;14.17;;
25627;SDS011;40915;50.826;4.356;2022-12-07T00:46:28;22.37;;;14.97;;
25627;SDS011;40915;50.826;4.356;2022-12-07T00:48:54;21.60;;;14.93;;
25627;SDS011;40915;50.826;4.356;2022-12-07T00:51:20;24.03;;;15.87;;
25627;SDS011;40915;50.826;4.356;2022-12-07T00:53:47;23.40;;;14.83;;
25627;SDS011;40915;50.826;4.356;2022-12-07T00:56:20;23.23;;;14.50;;
25627;SDS011;40915;50.826;4.356;2022-12-07T00:58:54;21.07;;;14.83;;
25627;SDS011;40915;50.826;4.356;2022-12-07T01:01:21;22.53;;;14.13;;
25627;SDS011;40915;50.826;4.356;2022-12-07T01:03:47;21.93;;;14.57;;
25627;SDS011;40915;50.826;4.356;2022-12-07T01:06:16;19.03;;;14.50;;
25627;SDS011;40915;50.826;4.356;2022-12-07T01:08:43;21.10;;;14.27;;
25627;SDS011;40915;50.826;4.356;2022-12-07T01:11:09;21.87;;;14.73;;
25627;SDS011;40915;50.826;4.356;2022-12-07T01:13:38;23.37;;;14.80;;
25627;SDS011;40915;50.826;4.356;2022-12-07T01:16:04;24.77;;;15.13;;
25627;SDS011;40915;50.826;4.356;2022-12-07T01:18:32;20.40;;;14.73;;
25627;SDS011;40915;50.826;4.356;2022-12-07T01:21:10;20.97;;;14.80;;
25627;SDS011;40915;50.826;4.356;2022-12-07T01:23:45;21.90;;;15.57;;
25627;SDS011;40915;50.826;4.356;2022-12-07T01:26:11;21.53;;;14.90;;
25627;SDS011;40915;50.826;4.356;2022-12-07T01:28:38;22.97;;;15.80;;
25627;SDS011;40915;50.826;4.356;2022-12-07T01:31:05;21.10;;;14.47;;
25627;SDS011;40915;50.826;4.356;2022-12-07T01:33:35;22.23;;;15.00;;
25627;SDS011;40915;50.826;4.356;2022-12-07T01:36:06;23.80;;;15.17;;
25627;SDS011;40915;50.826;4.356;2022-12-07T01:38:32;23.53;;;15.90;;
25627;SDS011;40915;50.826;4.356;2022-12-07T01:40:58;22.17;;;14.80;;
25627;SDS011;40915;50.826;4.356;2022-12-07T01:43:26;23.23;;;15.33;;
25627;SDS011;40915;50.826;4.356;2022-12-07T01:45:54;24.13;;;15.23;;
25627;SDS011;40915;50.826;4.356;2022-12-07T01:48:21;25.20;;;16.03;;
25627;SDS011;40915;50.826;4.356;2022-12-07T01:50:52;23.97;;;15.60;;
25627;SDS011;40915;50.826;4.356;2022-12-07T01:53:21;24.07;;;15.83;;
25627;SDS011;40915;50.826;4.356;2022-12-07T01:55:51;21.87;;;15.70;;
25627;SDS011;40915;50.826;4.356;2022-12-07T01:58:18;24.60;;;15.33;;
25627;SDS011;40915;50.826;4.356;2022-12-07T02:00:44;22.20;;;15.43;;
25627;SDS011;40915;50.826;4.356;2022-12-07T02:03:11;22.63;;;15.30;;
25627;SDS011;40915;50.826;4.356;2022-12-07T02:05:41;21.77;;;14.67;;
25627;SDS011;40915;50.826;4.356;2022-12-07T02:08:08;21.47;;;14.27;;
25627;SDS011;40915;50.826;4.356;2022-12-07T02:10:35;21.93;;;13.77;;
25627;SDS011;40915;50.826;4.356;2022-12-07T02:15:44;20.67;;;13.53;;
25627;SDS011;40915;50.826;4.356;2022-12-07T02:18:25;18.73;;;13.00;;
25627;SDS011;40915;50.826;4.356;2022-12-07T02:24:10;17.50;;;12.67;;
25627;SDS011;40915;50.826;4.356;2022-12-07T02:29:54;20.67;;;12.80;;
25627;SDS011;40915;50.826;4.356;2022-12-07T02:38:25;18.37;;;12.47;;
25627;SDS011;40915;50.826;4.356;2022-12-07T02:40:28;19.10;;;12.27;;
25627;SDS011;40915;50.826;4.356;2022-12-07T02:43:00;15.10;;;10.97;;
25627;SDS011;40915;50.826;4.356;2022-12-07T02:45:38;19.77;;;11.50;;
25627;SDS011;40915;50.826;4.356;2022-12-07T02:48:05;17.23;;;11.63;;
25627;SDS011;40915;50.826;4.356;2022-12-07T02:50:32;15.77;;;10.30;;
25627;SDS011;40915;50.826;4.356;2022-12-07T02:52:57;15.47;;;10.67;;
25627;SDS011;40915;50.826;4.356;2022-12-07T02:55:26;16.07;;;9.57;;
25627;SDS011;40915;50.826;4.356;2022-12-07T03:00:51;11.40;;;8.47;;
25627;SDS011;40915;50.826;4.356;2022-12-07T03:03:29;13.33;;;8.53;;
25627;SDS011;40915;50.826;4.356;2022-12-07T03:06:16;14.63;;;8.87;;
25627;SDS011;40915;50.826;4.356;2022-12-07T03:09:00;13.13;;;9.43;;
25627;SDS011;40915;50.826;4.356;2022-12-07T03:11:50;18.33;;;10.00;;
25627;SDS011;40915;50.826;4.356;2022-12-07T03:14:29;15.07;;;10.80;;
25627;SDS011;40915;50.826;4.356;2022-12-07T03:17:02;15.90;;;10.03;;
25627;SDS011;40915;50.826;4.356;2022-12-07T03:19:43;15.13;;;10.73;;
25627;SDS011;40915;50.826;4.356;2022-12-07T03:22:12;17.80;;;11.47;;
25627;SDS011;40915;50.826;4.356;2022-12-07T03:24:43;15.63;;;10.67;;
25627;SDS011;40915;50.826;4.356;2022-12-07T03:29:43;15.00;;;10.60;;
25627;SDS011;40915;50.826;4.356;2022-12-07T03:32:14;14.00;;;9.23;;
25627;SDS011;40915;50.826;4.356;2022-12-07T03:34:59;17.60;;;10.13;;
25627;SDS011;40915;50.826;4.356;2022-12-07T03:40:07;14.63;;;9.07;;
25627;SDS011;40915;50.826;4.356;2022-12-07T03:42:43;13.40;;;9.00;;
25627;SDS011;40915;50.826;4.356;2022-12-07T03:45:09;14.73;;;9.10;;
25627;SDS011;40915;50.826;4.356;2022-12-07T03:50:37;13.97;;;8.90;;
25627;SDS011;40915;50.826;4.356;2022-12-07T03:56:11;15.70;;;10.10;;
25627;SDS011;40915;50.826;4.356;2022-12-07T03:58:38;18.10;;;11.77;;
25627;SDS011;40915;50.826;4.356;2022-12-07T04:01:05;16.00;;;10.70;;
25627;SDS011;40915;50.826;4.356;2022-12-07T04:03:31;16.30;;;11.43;;
25627;SDS011;40915;50.826;4.356;2022-12-07T04:05:56;17.20;;;12.30;;
25627;SDS011;40915;50.826;4.356;2022-12-07T04:08:23;18.17;;;12.27;;
25627;SDS011;40915;50.826;4.356;2022-12-07T04:10:49;17.20;;;12.50;;
25627;SDS011;40915;50.826;4.356;2022-12-07T04:13:15;18.17;;;12.93;;
25627;SDS011;40915;50.826;4.356;2022-12-07T04:15:40;19.83;;;13.37;;
25627;SDS011;40915;50.826;4.356;2022-12-07T04:18:06;19.47;;;12.80;;
25627;SDS011;40915;50.826;4.356;2022-12-07T04:20:31;19.63;;;12.80;;
25627;SDS011;40915;50.826;4.356;2022-12-07T04:22:57;20.63;;;13.83;;
25627;SDS011;40915;50.826;4.356;2022-12-07T04:25:22;22.07;;;14.30;;
25627;SDS011;40915;50.826;4.356;2022-12-07T04:27:48;19.80;;;13.70;;
25627;SDS011;40915;50.826;4.356;2022-12-07T04:30:13;21.67;;;14.57;;
25627;SDS011;40915;50.826;4.356;2022-12-07T04:32:39;22.00;;;15.50;;
25627;SDS011;40915;50.826;4.356;2022-12-07T04:35:05;22.30;;;13.93;;
25627;SDS011;40915;50.826;4.356;2022-12-07T04:37:31;23.27;;;15.27;;
25627;SDS011;40915;50.826;4.356;2022-12-07T04:39:56;22.60;;;14.40;;
25627;SDS011;40915;50.826;4.356;2022-12-07T04:42:22;19.87;;;14.70;;
25627;SDS011;40915;50.826;4.356;2022-12-07T04:44:47;21.20;;;14.27;;
25627;SDS011;40915;50.826;4.356;2022-12-07T04:47:13;23.47;;;14.17;;
25627;SDS011;40915;50.826;4.356;2022-12-07T04:49:38;18.60;;;13.53;;
25627;SDS011;40915;50.826;4.356;2022-12-07T04:52:04;21.77;;;14.07;;
25627;SDS011;40915;50.826;4.356;2022-12-07T04:54:30;21.57;;;15.13;;
25627;SDS011;40915;50.826;4.356;2022-12-07T04:56:55;22.13;;;13.00;;
25627;SDS011;40915;50.826;4.356;2022-12-07T04:59:21;21.23;;;13.67;;
25627;SDS011;40915;50.826;4.356;2022-12-07T05:01:46;22.70;;;12.60;;
25627;SDS011;40915;50.826;4.356;2022-12-07T05:04:12;17.70;;;13.37;;
25627;SDS011;40915;50.826;4.356;2022-12-07T05:06:37;19.00;;;12.97;;
25627;SDS011;40915;50.826;4.356;2022-12-07T05:09:03;18.70;;;12.30;;
25627;SDS011;40915;50.826;4.356;2022-12-07T05:11:29;16.07;;;11.87;;
25627;SDS011;40915;50.826;4.356;2022-12-07T05:14:04;20.47;;;11.80;;
25627;SDS011;40915;50.826;4.356;2022-12-07T05:16:32;16.10;;;11.63;;
25627;SDS011;40915;50.826;4.356;2022-12-07T05:18:58;19.33;;;12.20;;
25627;SDS011;40915;50.826;4.356;2022-12-07T05:21:23;19.77;;;11.73;;
25627;SDS011;40915;50.826;4.356;2022-12-07T05:23:49;17.77;;;12.67;;
25627;SDS011;40915;50.826;4.356;2022-12-07T05:26:15;18.37;;;12.23;;
25627;SDS011;40915;50.826;4.356;2022-12-07T05:28:41;18.97;;;12.43;;
25627;SDS011;40915;50.826;4.356;2022-12-07T05:31:06;19.63;;;11.80;;
25627;SDS011;40915;50.826;4.356;2022-12-07T05:33:32;16.67;;;11.63;;
25627;SDS011;40915;50.826;4.356;2022-12-07T05:35:57;18.07;;;12.27;;
25627;SDS011;40915;50.826;4.356;2022-12-07T05:38:23;15.40;;;11.10;;
25627;SDS011;40915;50.826;4.356;2022-12-07T05:40:50;16.57;;;11.23;;
25627;SDS011;40915;50.826;4.356;2022-12-07T05:43:15;16.13;;;10.13;;
25627;SDS011;40915;50.826;4.356;2022-12-07T05:45:41;14.63;;;10.17;;
25627;SDS011;40915;50.826;4.356;2022-12-07T05:48:07;14.87;;;10.40;;
25627;SDS011;40915;50.826;4.356;2022-12-07T05:50:32;15.17;;;10.23;;
25627;SDS011;40915;50.826;4.356;2022-12-07T05:52:58;15.33;;;9.80;;
25627;SDS011;40915;50.826;4.356;2022-12-07T05:55:23;18.03;;;10.90;;
25627;SDS011;40915;50.826;4.356;2022-12-07T05:57:49;16.40;;;11.20;;
25627;SDS011;40915;50.826;4.356;2022-12-07T06:00:33;16.50;;;11.07;;
25627;SDS011;40915;50.826;4.356;2022-12-07T06:02:58;19.37;;;10.57;;
25627;SDS011;40915;50.826;4.356;2022-12-07T06:05:24;19.47;;;10.57;;
25627;SDS011;40915;50.826;4.356;2022-12-07T06:07:49;17.60;;;10.70;;
25627;SDS011;40915;50.826;4.356;2022-12-07T06:10:15;16.47;;;9.97;;
25627;SDS011;40915;50.826;4.356;2022-12-07T06:12:41;14.63;;;10.20;;
25627;SDS011;40915;50.826;4.356;2022-12-07T06:15:08;18.17;;;9.87;;
25627;SDS011;40915;50.826;4.356;2022-12-07T06:17:35;15.23;;;9.50;;
25627;SDS011;40915;50.826;4.356;2022-12-07T06:20:01;13.93;;;9.27;;
25627;SDS011;40915;50.826;4.356;2022-12-07T06:22:27;14.23;;;9.80;;
25627;SDS011;40915;50.826;4.356;2022-12-07T06:24:53;18.03;;;10.87;;
25627;SDS011;40915;50.826;4.356;2022-12-07T06:27:18;18.07;;;11.63;;
25627;SDS011;40915;50.826;4.356;2022-12-07T06:29:44;16.20;;;9.60;;
25627;SDS011;40915;50.826;4.356;2022-12-07T06:32:10;16.43;;;10.53;;
25627;SDS011;40915;50.826;4.356;2022-12-07T06:34:36;14.20;;;9.67;;
25627;SDS011;40915;50.826;4.356;2022-12-07T06:37:02;14.40;;;9.10;;
25627;SDS011;40915;50.826;4.356;2022-12-07T06:39:29;17.67;;;10.17;;
25627;SDS011;40915;50.826;4.356;2022-12-07T06:41:58;13.50;;;9.13;;
25627;SDS011;40915;50.826;4.356;2022-12-07T06:44:24;15.83;;;9.80;;
25627;SDS011;40915;50.826;4.356;2022-12-07T06:46:51;13.60;;;8.37;;
25627;SDS011;40915;50.826;4.356;2022-12-07T06:49:16;13.93;;;8.63;;
25627;SDS011;40915;50.826;4.356;2022-12-07T06:51:42;14.43;;;9.47;;
25627;SDS011;40915;50.826;4.356;2022-12-07T06:54:12;12.73;;;9.13;;
25627;SDS011;40915;50.826;4.356;2022-12-07T06:56:39;15.10;;;9.83;;
25627;SDS011;40915;50.826;4.356;2022-12-07T06:59:05;16.60;;;9.70;;
25627;SDS011;40915;50.826;4.356;2022-12-07T07:01:32;14.77;;;8.93;;
25627;SDS011;40915;50.826;4.356;2022-12-07T07:04:00;18.87;;;9.70;;
25627;SDS011;40915;50.826;4.356;2022-12-07T07:06:26;15.77;;;9.43;;
25627;SDS011;40915;50.826;4.356;2022-12-07T07:08:51;14.87;;;9.20;;
25627;SDS011;40915;50.826;4.356;2022-12-07T07:11:17;17.20;;;10.93;;
25627;SDS011;40915;50.826;4.356;2022-12-07T07:13:43;15.37;;;9.43;;
25627;SDS011;40915;50.826;4.356;2022-12-07T07:16:10;16.27;;;10.63;;
25627;SDS011;40915;50.826;4.356;2022-12-07T07:18:35;17.23;;;10.43;;
25627;SDS011;40915;50.826;4.356;2022-12-07T07:21:01;17.63;;;10.73;;
25627;SDS011;40915;50.826;4.356;2022-12-07T07:23:27;19.27;;;10.60;;
25627;SDS011;40915;50.826;4.356;2022-12-07T07:25:53;15.63;;;10.33;;
25627;SDS011;40915;50.826;4.356;2022-12-07T07:28:19;15.80;;;10.13;;
25627;SDS011;40915;50.826;4.356;2022-12-07T07:30:45;15.47;;;10.30;;
25627;SDS011;40915;50.826;4.356;2022-12-07T07:33:10;18.27;;;10.50;;
25627;SDS011;40915;50.826;4.356;2022-12-07T07:35:36;19.77;;;10.67;;
25627;SDS011;40915;50.826;4.356;2022-12-07T07:38:02;17.77;;;10.53;;
25627;SDS011;40915;50.826;4.356;2022-12-07T07:40:28;15.03;;;10.00;;
25627;SDS011;40915;50.826;4.356;2022-12-07T07:42:55;20.87;;;11.40;;
25627;SDS011;40915;50.826;4.356;2022-12-07T07:45:21;15.80;;;9.87;;
25627;SDS011;40915;50.826;4.356;2022-12-07T07:47:48;16.73;;;9.73;;
25627;SDS011;40915;50.826;4.356;2022-12-07T07:50:14;16.20;;;9.50;;
25627;SDS011;40915;50.826;4.356;2022-12-07T07:52:40;20.53;;;10.53;;
25627;SDS011;40915;50.826;4.356;2022-12-07T07:55:06;13.70;;;9.30;;
25627;SDS011;40915;50.826;4.356;2022-12-07T07:57:35;16.17;;;9.27;;
25627;SDS011;40915;50.826;4.356;2022-12-07T08:00:05;15.67;;;8.90;;
25627;SDS011;40915;50.826;4.356;2022-12-07T08:02:38;15.20;;;8.80;;
25627;SDS011;40915;50.826;4.356;2022-12-07T08:05:04;16.67;;;9.97;;
25627;SDS011;40915;50.826;4.356;2022-12-07T08:07:30;16.27;;;9.20;;
25627;SDS011;40915;50.826;4.356;2022-12-07T08:09:56;16.10;;;10.30;;
25627;SDS011;40915;50.826;4.356;2022-12-07T08:12:21;13.30;;;7.90;;
25627;SDS011;40915;50.826;4.356;2022-12-07T08:14:47;12.83;;;8.23;;
25627;SDS011;40915;50.826;4.356;2022-12-07T08:17:12;15.93;;;10.03;;
25627;SDS011;40915;50.826;4.356;2022-12-07T08:19:38;15.63;;;9.87;;
25627;SDS011;40915;50.826;4.356;2022-12-07T08:22:04;16.40;;;10.20;;
25627;SDS011;40915;50.826;4.356;2022-12-07T08:24:32;16.73;;;10.43;;
25627;SDS011;40915;50.826;4.356;2022-12-07T08:26:58;16.23;;;10.73;;
25627;SDS011;40915;50.826;4.356;2022-12-07T08:29:24;18.20;;;11.17;;
25627;SDS011;40915;50.826;4.356;2022-12-07T08:31:49;21.17;;;11.27;;
25627;SDS011;40915;50.826;4.356;2022-12-07T08:34:16;17.13;;;11.20;;
25627;SDS011;40915;50.826;4.356;2022-12-07T08:36:42;19.73;;;11.97;;
25627;SDS011;40915;50.826;4.356;2022-12-07T08:39:07;15.47;;;11.57;;
25627;SDS011;40915;50.826;4.356;2022-12-07T08:41:33;17.67;;;12.13;;
25627;SDS011;40915;50.826;4.356;2022-12-07T08:43:59;17.33;;;11.67;;
25627;SDS011;40915;50.826;4.356;2022-12-07T08:46:38;17.07;;;11.03;;
25627;SDS011;40915;50.826;4.356;2022-12-07T08:49:24;18.50;;;11.27;;
25627;SDS011;40915;50.826;4.356;2022-12-07T08:51:55;22.03;;;9.67;;
25627;SDS011;40915;50.826;4.356;2022-12-07T08:54:21;15.77;;;8.70;;
25627;SDS011;40915;50.826;4.356;2022-12-07T08:56:47;12.73;;;9.03;;
25627;SDS011;40915;50.826;4.356;2022-12-07T08:59:14;11.23;;;7.60;;
25627;SDS011;40915;50.826;4.356;2022-12-07T09:01:42;12.17;;;7.47;;
25627;SDS011;40915;50.826;4.356;2022-12-07T09:04:08;13.57;;;7.47;;
25627;SDS011;40915;50.826;4.356;2022-12-07T09:06:33;12.63;;;7.70;;
25627;SDS011;40915;50.826;4.356;2022-12-07T09:09:00;10.57;;;7.20;;
25627;SDS011;40915;50.826;4.356;2022-12-07T09:11:26;11.30;;;6.60;;
25627;SDS011;40915;50.826;4.356;2022-12-07T09:13:52;11.07;;;6.40;;
25627;SDS011;40915;50.826;4.356;2022-12-07T09:16:18;13.47;;;6.53;;
25627;SDS011;40915;50.826;4.356;2022-12-07T09:18:43;12.60;;;6.40;;
25627;SDS011;40915;50.826;4.356;2022-12-07T09:21:09;10.50;;;6.67;;
25627;SDS011;40915;50.826;4.356;2022-12-07T09:23:34;11.03;;;5.83;;
25627;SDS011;40915;50.826;4.356;2022-12-07T09:26:01;13.47;;;7.93;;
25627;SDS011;40915;50.826;4.356;2022-12-07T09:28:27;12.83;;;6.67;;
25627;SDS011;40915;50.826;4.356;2022-12-07T09:30:53;15.10;;;6.93;;
25627;SDS011;40915;50.826;4.356;2022-12-07T09:33:19;14.67;;;5.93;;
25627;SDS011;40915;50.826;4.356;2022-12-07T09:35:45;10.47;;;6.50;;
25627;SDS011;40915;50.826;4.356;2022-12-07T09:38:12;11.17;;;6.37;;
25627;SDS011;40915;50.826;4.356;2022-12-07T09:40:38;10.77;;;6.60;;
25627;SDS011;40915;50.826;4.356;2022-12-07T09:43:03;9.83;;;5.23;;
25627;SDS011;40915;50.826;4.356;2022-12-07T09:45:33;9.30;;;5.30;;
25627;SDS011;40915;50.826;4.356;2022-12-07T09:48:02;9.73;;;5.83;;
25627;SDS011;40915;50.826;4.356;2022-12-07T09:50:28;13.30;;;5.97;;
25627;SDS011;40915;50.826;4.356;2022-12-07T09:52:55;10.23;;;5.90;;
25627;SDS011;40915;50.826;4.356;2022-12-07T09:55:31;16.53;;;8.90;;
25627;SDS011;40915;50.826;4.356;2022-12-07T09:57:58;12.87;;;6.33;;
25627;SDS011;40915;50.826;4.356;2022-12-07T10:00:24;12.50;;;6.53;;
25627;SDS011;40915;50.826;4.356;2022-12-07T10:02:57;9.53;;;6.03;;
25627;SDS011;40915;50.826;4.356;2022-12-07T10:05:28;7.33;;;5.87;;
25627;SDS011;40915;50.826;4.356;2022-12-07T10:07:57;13.03;;;6.40;;
25627;SDS011;40915;50.826;4.356;2022-12-07T10:10:23;10.20;;;7.10;;
25627;SDS011;40915;50.826;4.356;2022-12-07T10:13:07;12.77;;;6.80;;
25627;SDS011;40915;50.826;4.356;2022-12-07T10:21:16;10.60;;;7.00;;
25627;SDS011;40915;50.826;4.356;2022-12-07T10:26:45;13.73;;;6.67;;
25627;SDS011;40915;50.826;4.356;2022-12-07T10:34:40;9.10;;;6.00;;
25627;SDS011;40915;50.826;4.356;2022-12-07T10:37:13;11.57;;;6.23;;
25627;SDS011;40915;50.826;4.356;2022-12-07T10:39:52;12.50;;;6.47;;
25627;SDS011;40915;50.826;4.356;2022-12-07T10:45:12;10.97;;;5.80;;
25627;SDS011;40915;50.826;4.356;2022-12-07T10:47:48;8.83;;;6.00;;
25627;SDS011;40915;50.826;4.356;2022-12-07T10:56:01;13.73;;;6.27;;
25627;SDS011;40915;50.826;4.356;2022-12-07T10:58:52;12.50;;;5.40;;
25627;SDS011;40915;50.826;4.356;2022-12-07T11:01:45;14.03;;;5.90;;
25627;SDS011;40915;50.826;4.356;2022-12-07T11:04:19;11.07;;;5.47;;
25627;SDS011;40915;50.826;4.356;2022-12-07T11:07:08;9.47;;;5.73;;
25627;SDS011;40915;50.826;4.356;2022-12-07T11:18:00;9.70;;;4.80;;
25627;SDS011;40915;50.826;4.356;2022-12-07T11:31:23;11.50;;;4.47;;
25627;SDS011;40915;50.826;4.356;2022-12-07T11:34:07;11.60;;;4.47;;
25627;SDS011;40915;50.826;4.356;2022-12-07T11:36:45;7.30;;;3.70;;
25627;SDS011;40915;50.826;4.356;2022-12-07T11:42:03;12.80;;;4.63;;
25627;SDS011;40915;50.826;4.356;2022-12-07T11:47:57;7.47;;;3.93;;
25627;SDS011;40915;50.826;4.356;2022-12-07T12:06:27;8.40;;;4.10;;
25627;SDS011;40915;50.826;4.356;2022-12-07T12:09:15;10.27;;;4.77;;
25627;SDS011;40915;50.826;4.356;2022-12-07T12:22:52;8.30;;;2.50;;
25627;SDS011;40915;50.826;4.356;2022-12-07T12:25:34;4.53;;;2.10;;
25627;SDS011;40915;50.826;4.356;2022-12-07T12:33:47;8.10;;;2.87;;
25627;SDS011;40915;50.826;4.356;2022-12-07T12:44:01;12.13;;;4.53;;
25627;SDS011;40915;50.826;4.356;2022-12-07T12:51:45;10.27;;;2.83;;
25627;SDS011;40915;50.826;4.356;2022-12-07T12:54:23;6.63;;;3.10;;
25627;SDS011;40915;50.826;4.356;2022-12-07T12:57:04;6.60;;;2.77;;
25627;SDS011;40915;50.826;4.356;2022-12-07T12:59:39;7.60;;;2.67;;
25627;SDS011;40915;50.826;4.356;2022-12-07T13:02:21;8.53;;;2.60;;
25627;SDS011;40915;50.826;4.356;2022-12-07T13:05:00;7.10;;;2.53;;
25627;SDS011;40915;50.826;4.356;2022-12-07T13:10:30;7.87;;;2.50;;
25627;SDS011;40915;50.826;4.356;2022-12-07T13:26:31;5.17;;;2.63;;
25627;SDS011;40915;50.826;4.356;2022-12-07T13:31:36;7.47;;;2.30;;
25627;SDS011;40915;50.826;4.356;2022-12-07T13:34:05;7.03;;;3.00;;
25627;SDS011;40915;50.826;4.356;2022-12-07T13:37:29;10.93;;;3.35;;
25627;SDS011;40915;50.826;4.356;2022-12-07T13:39:58;7.57;;;2.63;;
25627;SDS011;40915;50.826;4.356;2022-12-07T13:42:26;7.37;;;3.13;;
25627;SDS011;40915;50.826;4.356;2022-12-07T13:44:57;7.40;;;2.90;;
25627;SDS011;40915;50.826;4.356;2022-12-07T13:47:44;9.83;;;2.60;;
25627;SDS011;40915;50.826;4.356;2022-12-07T13:50:24;5.97;;;3.33;;
25627;SDS011;40915;50.826;4.356;2022-12-07T13:52:54;14.73;;;4.70;;
25627;SDS011;40915;50.826;4.356;2022-12-07T13:55:21;6.70;;;2.80;;
25627;SDS011;40915;50.826;4.356;2022-12-07T13:57:48;15.07;;;4.50;;
25627;SDS011;40915;50.826;4.356;2022-12-07T14:00:25;12.70;;;3.50;;
25627;SDS011;40915;50.826;4.356;2022-12-07T14:02:57;8.30;;;3.33;;
25627;SDS011;40915;50.826;4.356;2022-12-07T14:05:26;9.40;;;2.70;;
25627;SDS011;40915;50.826;4.356;2022-12-07T14:07:54;6.57;;;3.00;;
25627;SDS011;40915;50.826;4.356;2022-12-07T14:10:22;9.23;;;3.13;;
25627;SDS011;40915;50.826;4.356;2022-12-07T14:12:49;6.27;;;3.00;;
25627;SDS011;40915;50.826;4.356;2022-12-07T14:15:19;3.67;;;1.77;;
25627;SDS011;40915;50.826;4.356;2022-12-07T14:17:50;7.30;;;2.70;;
25627;SDS011;40915;50.826;4.356;2022-12-07T14:20:33;7.10;;;2.80;;
25627;SDS011;40915;50.826;4.356;2022-12-07T14:23:01;8.40;;;3.40;;
25627;SDS011;40915;50.826;4.356;2022-12-07T14:25:34;7.43;;;3.37;;
25627;SDS011;40915;50.826;4.356;2022-12-07T14:28:25;9.30;;;3.40;;
25627;SDS011;40915;50.826;4.356;2022-12-07T14:30:52;7.23;;;2.73;;
25627;SDS011;40915;50.826;4.356;2022-12-07T14:33:17;5.03;;;1.80;;
25627;SDS011;40915;50.826;4.356;2022-12-07T14:35:44;6.33;;;2.20;;
25627;SDS011;40915;50.826;4.356;2022-12-07T14:38:09;4.93;;;1.90;;
25627;SDS011;40915;50.826;4.356;2022-12-07T14:40:35;5.70;;;1.90;;
25627;SDS011;40915;50.826;4.356;2022-12-07T14:43:01;5.43;;;1.93;;
25627;SDS011;40915;50.826;4.356;2022-12-07T14:45:34;1.73;;;1.30;;
25627;SDS011;40915;50.826;4.356;2022-12-07T14:47:59;4.17;;;1.83;;
25627;SDS011;40915;50.826;4.356;2022-12-07T14:50:25;3.67;;;1.43;;
25627;SDS011;40915;50.826;4.356;2022-12-07T14:52:51;4.27;;;1.20;;
25627;SDS011;40915;50.826;4.356;2022-12-07T14:55:22;5.63;;;1.80;;
25627;SDS011;40915;50.826;4.356;2022-12-07T14:57:49;7.40;;;2.37;;
25627;SDS011;40915;50.826;4.356;2022-12-07T15:00:16;3.10;;;1.90;;
25627;SDS011;40915;50.826;4.356;2022-12-07T15:02:44;5.07;;;2.60;;
25627;SDS011;40915;50.826;4.356;2022-12-07T15:05:10;4.83;;;1.90;;
25627;SDS011;40915;50.826;4.356;2022-12-07T15:07:35;8.73;;;2.83;;
25627;SDS011;40915;50.826;4.356;2022-12-07T15:10:01;5.73;;;2.57;;
25627;SDS011;40915;50.826;4.356;2022-12-07T15:12:27;5.10;;;2.70;;
25627;SDS011;40915;50.826;4.356;2022-12-07T15:14:52;6.37;;;3.07;;
25627;SDS011;40915;50.826;4.356;2022-12-07T15:17:18;6.20;;;2.50;;
25627;SDS011;40915;50.826;4.356;2022-12-07T15:19:43;5.77;;;2.57;;
25627;SDS011;40915;50.826;4.356;2022-12-07T15:22:09;5.53;;;2.77;;
25627;SDS011;40915;50.826;4.356;2022-12-07T15:24:35;5.97;;;3.20;;
25627;SDS011;40915;50.826;4.356;2022-12-07T15:27:01;4.40;;;2.23;;
25627;SDS011;40915;50.826;4.356;2022-12-07T15:29:27;5.53;;;2.40;;
25627;SDS011;40915;50.826;4.356;2022-12-07T15:31:53;4.80;;;2.30;;
25627;SDS011;40915;50.826;4.356;2022-12-07T15:34:19;7.43;;;3.00;;
25627;SDS011;40915;50.826;4.356;2022-12-07T15:36:44;6.23;;;3.43;;
25627;SDS011;40915;50.826;4.356;2022-12-07T15:39:10;8.73;;;3.60;;
25627;SDS011;40915;50.826;4.356;2022-12-07T15:41:36;5.80;;;3.47;;
25627;SDS011;40915;50.826;4.356;2022-12-07T15:44:02;5.80;;;3.00;;
25627;SDS011;40915;50.826;4.356;2022-12-07T15:46:46;8.87;;;3.53;;
25627;SDS011;40915;50.826;4.356;2022-12-07T15:49:13;8.30;;;4.40;;
25627;SDS011;40915;50.826;4.356;2022-12-07T15:51:41;7.93;;;3.83;;
25627;SDS011;40915;50.826;4.356;2022-12-07T15:54:08;6.20;;;3.37;;
25627;SDS011;40915;50.826;4.356;2022-12-07T15:56:44;8.37;;;4.40;;
25627;SDS011;40915;50.826;4.356;2022-12-07T15:59:10;7.53;;;3.03;;
25627;SDS011;40915;50.826;4.356;2022-12-07T16:01:35;13.23;;;5.17;;
25627;SDS011;40915;50.826;4.356;2022-12-07T16:04:01;16.33;;;4.27;;
25627;SDS011;40915;50.826;4.356;2022-12-07T16:06:27;7.43;;;3.57;;
25627;SDS011;40915;50.826;4.356;2022-12-07T16:08:52;5.13;;;3.37;;
25627;SDS011;40915;50.826;4.356;2022-12-07T16:11:18;8.53;;;4.13;;
25627;SDS011;40915;50.826;4.356;2022-12-07T16:13:43;7.90;;;3.67;;
25627;SDS011;40915;50.826;4.356;2022-12-07T16:16:13;6.37;;;3.70;;
25627;SDS011;40915;50.826;4.356;2022-12-07T16:18:41;6.93;;;4.23;;
25627;SDS011;40915;50.826;4.356;2022-12-07T16:21:08;6.63;;;3.73;;
25627;SDS011;40915;50.826;4.356;2022-12-07T16:23:33;8.93;;;5.37;;
25627;SDS011;40915;50.826;4.356;2022-12-07T16:26:06;10.90;;;4.70;;
25627;SDS011;40915;50.826;4.356;2022-12-07T16:28:40;7.67;;;4.20;;
25627;SDS011;40915;50.826;4.356;2022-12-07T16:31:10;8.80;;;3.40;;
25627;SDS011;40915;50.826;4.356;2022-12-07T16:33:38;7.33;;;4.23;;
25627;SDS011;40915;50.826;4.356;2022-12-07T16:36:05;7.23;;;4.00;;
25627;SDS011;40915;50.826;4.356;2022-12-07T16:38:32;6.63;;;4.00;;
25627;SDS011;40915;50.826;4.356;2022-12-07T16:40:58;8.27;;;4.03;;
25627;SDS011;40915;50.826;4.356;2022-12-07T16:43:23;6.13;;;3.77;;
25627;SDS011;40915;50.826;4.356;2022-12-07T16:45:49;7.47;;;4.03;;
25627;SDS011;40915;50.826;4.356;2022-12-07T16:48:16;7.97;;;4.73;;
25627;SDS011;40915;50.826;4.356;2022-12-07T16:50:42;9.73;;;5.00;;
25627;SDS011;40915;50.826;4.356;2022-12-07T16:53:09;10.07;;;5.50;;
25627;SDS011;40915;50.826;4.356;2022-12-07T16:55:36;7.20;;;4.67;;
25627;SDS011;40915;50.826;4.356;2022-12-07T16:58:02;10.30;;;5.73;;
25627;SDS011;40915;50.826;4.356;2022-12-07T17:00:28;6.03;;;4.20;;
25627;SDS011;40915;50.826;4.356;2022-12-07T17:02:54;6.67;;;4.53;;
25627;SDS011;40915;50.826;4.356;2022-12-07T17:05:20;10.70;;;5.37;;